High Springs, Florida
Current Conditions -  °F | °C
As of 10:53 AM on Sunday 23 Nov 2014 (Local Time) from KGNV Reporting Station
Overcast Overcast  
Wind Chill: 75°   Ceiling: 1500
Heat Index: 75°   Visibility: 10mi
Dew Point: 70°   Wind: 10mph
Humidity: 84%   Direction: 160°SSE
Pressure: 29.98"   Gusts: NA
Location:  29.82°N, 82.59°W
Report Text: KGNV 231553Z 16009KT 10SM OVC015 24/21 A2998 RMK AO2 SLP151 T02390211
Loading
Personal Weather Stations






























Interactive Weather Map New forecast layout! Learn more

10-Day Weather Forecast

Advertisements
Track Severe Weather on mobile